Time;durP1;ratioP1;P1;durP2;ratioP2;P2;SDS_P1;SDS_P2;PMS_P1;PMS_P2;Temp;Humidity;BMP_temperature;BMP_pressure;BME280_temperature;BME280_humidity;BME280_pressure;Samples;Min_cycle;Max_cycle;Signal;HPM_P1;HPM_P2
2023/05/18 00:01:06;;;;;;;8.50;7.40;;;5.50;99.90;;;6.25;91.33;98571.09;5163056;28;20678;-62
2023/05/18 00:03:40;;;;;;;7.43;6.77;;;5.50;99.90;;;6.21;91.18;98573.22;5158640;28;20498;-63
2023/05/18 00:06:15;;;;;;;8.50;7.10;;;5.40;99.90;;;6.21;91.38;98569.06;5161157;28;20285;-63
2023/05/18 00:08:48;;;;;;;8.47;7.40;;;5.40;99.90;;;6.12;91.85;98573.34;5159405;28;20569;-61
2023/05/18 00:11:21;;;;;;;8.07;7.10;;;5.40;99.90;;;6.06;91.17;98572.81;5159800;28;20641;-62
2023/05/18 00:13:54;;;;;;;8.93;7.10;;;5.30;99.90;;;5.92;91.89;98569.06;5160162;28;20226;-63
2023/05/18 00:16:27;;;;;;;8.27;7.53;;;5.20;99.90;;;5.81;92.69;98577.41;5162059;28;20262;-62
2023/05/18 00:19:01;;;;;;;8.03;7.17;;;5.10;99.90;;;5.63;93.27;98574.13;5158563;28;20233;-63
2023/05/18 00:21:35;;;;;;;8.50;7.27;;;5.00;99.90;;;5.76;92.66;98571.94;5162868;28;20227;-63
2023/05/18 00:24:09;;;;;;;8.30;7.20;;;5.00;99.90;;;5.64;92.90;98566.69;5162125;28;20249;-61
2023/05/18 00:26:45;;;;;;;9.23;7.07;;;5.00;99.90;;;5.71;92.88;98560.47;5164578;28;20227;-61
2023/05/18 00:29:18;;;;;;;8.10;7.40;;;5.00;99.90;;;5.75;92.97;98560.00;5161072;28;20268;-62
2023/05/18 00:31:51;;;;;;;7.70;7.00;;;5.00;99.90;;;5.75;92.77;98565.09;5163969;28;20242;-61
2023/05/18 00:34:24;;;;;;;8.30;7.47;;;5.00;99.90;;;5.85;93.18;98562.56;5161811;28;20241;-61
2023/05/18 00:36:58;;;;;;;8.73;7.93;;;5.10;99.90;;;5.85;93.28;98565.09;5162161;28;20310;-61
2023/05/18 00:39:31;;;;;;;8.60;7.80;;;5.20;99.90;;;5.87;93.22;98566.13;5160593;28;20720;-61
2023/05/18 00:42:05;;;;;;;8.00;6.77;;;5.10;99.90;;;5.85;93.03;98572.72;5163061;28;20689;-61
2023/05/18 00:44:38;;;;;;;8.50;7.67;;;5.10;99.90;;;5.80;93.41;98557.84;5163371;28;20648;-62
2023/05/18 00:47:11;;;;;;;8.67;7.83;;;5.10;99.90;;;5.69;93.96;98562.00;5158920;28;20266;-62
2023/05/18 00:49:44;;;;;;;9.47;7.63;;;5.00;99.90;;;5.71;93.58;98568.09;5162020;28;20254;-61
2023/05/18 00:52:20;;;;;;;8.80;7.90;;;5.00;99.90;;;5.67;94.07;98571.13;5160633;28;20654;-62
2023/05/18 00:54:53;;;;;;;8.27;7.13;;;5.00;99.90;;;5.60;94.12;98566.25;5166854;28;20268;-62
2023/05/18 00:57:27;;;;;;;9.57;7.37;;;4.90;99.90;;;5.57;93.45;98566.00;5162470;28;20304;-62
2023/05/18 01:00:01;;;;;;;9.17;8.27;;;4.90;99.90;;;5.39;94.11;98556.03;5163514;28;20663;-63
2023/05/18 01:02:35;;;;;;;8.20;7.50;;;4.70;99.90;;;5.35;94.40;98556.53;5157872;28;20233;-61
2023/05/18 01:05:09;;;;;;;10.87;8.30;;;4.70;99.90;;;5.25;95.06;98566.59;5165451;28;20225;-62
2023/05/18 01:07:44;;;;;;;9.97;8.27;;;4.60;99.90;;;5.32;95.00;98561.31;5160941;28;20311;-61
2023/05/18 01:10:19;;;;;;;9.33;8.43;;;4.70;99.90;;;5.31;95.08;98553.56;5160858;28;20262;-61
2023/05/18 01:12:57;;;;;;;8.80;7.90;;;4.70;99.90;;;5.33;94.77;98557.13;5162285;28;20903;-62
2023/05/18 01:15:35;;;;;;;8.43;7.53;;;4.60;99.90;;;5.44;94.97;98558.97;5164065;28;20359;-63
2023/05/18 01:18:15;;;;;;;9.57;8.40;;;4.70;99.90;;;5.43;94.63;98555.53;5160374;28;20663;-62
2023/05/18 01:20:58;;;;;;;9.00;8.10;;;4.70;99.90;;;5.34;94.78;98552.19;5159857;28;20238;-62
2023/05/18 01:24:04;;;;;;;8.43;7.63;;;4.70;99.90;;;5.37;94.86;98555.00;5162105;28;20234;-62
2023/05/18 01:26:44;;;;;;;9.30;8.50;;;4.60;99.90;;;5.35;94.60;98553.06;5142910;28;20305;-64
2023/05/18 01:29:20;;;;;;;9.87;8.87;;;4.60;99.90;;;5.29;94.76;98552.53;5141012;28;20240;-65
2023/05/18 01:31:53;;;;;;;9.10;8.20;;;4.60;99.90;;;5.27;95.06;98552.41;5140687;28;20256;-61
2023/05/18 01:34:27;;;;;;;9.20;8.30;;;4.60;99.90;;;5.17;95.07;98554.88;5160106;28;20306;-61
2023/05/18 01:37:00;;;;;;;9.30;8.13;;;4.50;99.90;;;5.19;95.08;98554.25;5156878;28;20288;-65
2023/05/18 01:39:33;;;;;;;9.27;8.17;;;4.50;99.90;;;5.19;95.16;98544.13;5156702;28;20219;-61
2023/05/18 01:42:14;;;;;;;9.00;8.10;;;4.50;99.90;;;5.24;95.30;98542.00;5160291;28;20344;-62
2023/05/18 01:44:53;;;;;;;9.03;8.13;;;4.50;99.90;;;5.24;95.27;98556.34;5161872;28;20305;-62
2023/05/18 01:47:30;;;;;;;8.83;7.90;;;4.60;99.90;;;5.20;95.66;98543.34;5162618;28;20314;-61
2023/05/18 01:50:10;;;;;;;10.40;8.40;;;4.50;99.90;;;5.19;95.34;98544.13;5163237;28;20896;-61
2023/05/18 01:52:47;;;;;;;9.00;8.20;;;4.50;99.90;;;5.23;95.32;98541.84;5163571;28;20232;-62
2023/05/18 01:55:21;;;;;;;8.33;7.53;;;4.50;99.90;;;5.28;95.41;98546.59;5161332;28;20220;-62
2023/05/18 01:57:57;;;;;;;9.10;8.30;;;4.60;99.90;;;5.35;95.31;98545.47;5162179;28;20225;-63
2023/05/18 02:00:30;;;;;;;8.73;7.83;;;4.60;99.90;;;5.33;95.43;98541.94;5160892;28;20295;-62
2023/05/18 02:03:03;;;;;;;8.80;7.97;;;4.60;99.90;;;5.33;95.16;98545.34;5158883;28;20309;-62
2023/05/18 02:05:37;;;;;;;8.23;7.53;;;4.60;99.90;;;5.37;94.41;98544.84;5160713;28;20230;-61
2023/05/18 02:08:10;;;;;;;7.33;6.60;;;4.60;99.90;;;5.32;94.53;98541.03;5161471;28;20654;-62
2023/05/18 02:10:43;;;;;;;8.53;7.73;;;4.50;99.90;;;5.30;94.09;98540.00;5162844;28;20283;-63
2023/05/18 02:13:17;;;;;;;9.57;7.40;;;4.50;99.90;;;5.33;93.83;98537.75;5158807;28;20258;-62
2023/05/18 02:15:50;;;;;;;7.77;7.00;;;4.50;99.90;;;5.33;92.84;98536.88;5159471;28;20249;-61
2023/05/18 02:18:25;;;;;;;6.80;6.10;;;4.40;99.90;;;5.29;92.77;98540.75;5161347;28;20234;-64
2023/05/18 02:20:59;;;;;;;7.47;6.77;;;4.40;99.90;;;5.28;92.42;98533.91;5163067;28;20300;-62
2023/05/18 02:23:32;;;;;;;7.47;6.73;;;4.40;99.90;;;5.27;92.26;98532.16;5159876;28;20241;-62
2023/05/18 02:26:06;;;;;;;7.63;7.00;;;4.40;99.90;;;5.21;92.59;98531.59;5162154;28;20743;-61
2023/05/18 02:28:40;;;;;;;8.07;7.37;;;4.30;99.90;;;5.19;92.86;98538.19;5159352;28;20226;-64
2023/05/18 02:31:13;;;;;;;8.50;7.40;;;4.30;99.90;;;5.11;93.04;98534.94;5160155;28;20244;-64
2023/05/18 02:33:46;;;;;;;8.97;8.17;;;4.30;99.90;;;4.98;92.82;98532.09;5157870;28;20237;-65
2023/05/18 02:36:21;;;;;;;8.13;7.33;;;4.20;99.90;;;4.92;93.80;98536.59;5158939;28;20595;-62
2023/05/18 02:38:56;;;;;;;8.73;7.93;;;4.10;99.90;;;4.95;93.55;98530.19;5168918;28;20215;-61
2023/05/18 02:41:29;;;;;;;6.87;6.23;;;4.10;99.90;;;4.93;93.94;98531.69;5164134;28;20237;-62
2023/05/18 02:44:04;;;;;;;9.13;8.23;;;4.10;99.90;;;4.96;93.69;98520.94;5167938;28;20290;-62
2023/05/18 02:46:37;;;;;;;7.97;7.33;;;4.10;99.90;;;4.94;93.64;98517.38;5161473;28;20713;-62
2023/05/18 02:49:10;;;;;;;8.20;7.40;;;4.10;99.90;;;4.94;93.80;98515.72;5159337;28;20276;-62
2023/05/18 02:51:43;;;;;;;8.30;7.50;;;4.20;99.90;;;4.91;93.46;98525.56;5160975;28;20575;-61
2023/05/18 02:54:16;;;;;;;8.23;7.43;;;4.10;99.90;;;4.90;93.68;98518.75;5163043;28;20239;-62
2023/05/18 02:56:49;;;;;;;8.30;7.50;;;4.10;99.90;;;4.87;93.50;98518.47;5159076;28;20653;-62
2023/05/18 02:59:24;;;;;;;8.20;7.50;;;4.10;99.90;;;4.82;93.70;98518.81;5160581;28;20289;-62
2023/05/18 03:01:57;;;;;;;9.77;7.60;;;4.00;99.90;;;4.84;93.22;98520.72;5161428;28;20306;-63
2023/05/18 03:04:30;;;;;;;8.13;7.43;;;4.00;99.90;;;4.81;93.25;98507.78;5160487;28;20223;-62
2023/05/18 03:07:06;;;;;;;8.40;7.60;;;4.00;99.90;;;4.82;93.36;98511.22;5160882;28;20229;-62
2023/05/18 03:09:39;;;;;;;8.30;7.60;;;4.00;99.90;;;4.77;93.20;98505.72;5159013;28;20239;-62
2023/05/18 03:12:12;;;;;;;7.83;7.10;;;3.90;99.90;;;4.72;93.00;98512.00;5162333;28;20228;-63
2023/05/18 03:14:46;;;;;;;7.43;6.73;;;3.90;99.90;;;4.70;92.91;98513.53;5159003;28;20219;-64
2023/05/18 03:17:19;;;;;;;8.80;7.93;;;3.80;99.90;;;4.62;93.48;98506.88;5158443;28;20612;-63
2023/05/18 03:19:52;;;;;;;8.83;7.50;;;3.80;99.90;;;4.51;93.04;98509.31;5156700;28;20237;-61
2023/05/18 03:22:25;;;;;;;8.33;7.30;;;3.70;99.90;;;4.42;94.06;98500.91;5161397;28;20234;-63
2023/05/18 03:25:01;;;;;;;8.53;7.80;;;3.60;99.90;;;4.46;93.61;98517.25;5160209;28;20270;-61
2023/05/18 03:27:34;;;;;;;8.00;7.30;;;3.70;99.90;;;4.43;94.45;98507.72;5160419;28;20223;-64
2023/05/18 03:30:10;;;;;;;9.13;7.77;;;3.70;99.90;;;4.47;94.56;98509.81;5150570;28;20255;-64
2023/05/18 03:32:43;;;;;;;9.27;8.47;;;3.70;99.90;;;4.44;94.47;98509.53;5158320;28;20339;-64
2023/05/18 03:35:16;;;;;;;9.40;8.47;;;3.70;99.90;;;4.46;94.65;98502.97;5157463;28;20223;-63
2023/05/18 03:37:49;;;;;;;10.63;8.73;;;3.70;99.90;;;4.43;95.43;98507.72;5165042;28;20276;-61
2023/05/18 03:40:23;;;;;;;9.80;8.80;;;3.70;99.90;;;4.47;95.20;98511.47;5158874;28;20542;-61
2023/05/18 03:42:56;;;;;;;9.43;8.63;;;3.70;99.90;;;4.41;95.28;98518.50;5159250;28;20237;-62
2023/05/18 03:45:31;;;;;;;9.83;8.87;;;3.70;99.90;;;4.39;95.30;98500.63;5161290;28;20246;-62
2023/05/18 03:48:05;;;;;;;9.97;8.97;;;3.70;99.90;;;4.41;95.11;98503.31;5159659;28;20223;-63
2023/05/18 03:50:39;;;;;;;9.63;8.73;;;3.70;99.90;;;4.41;95.92;98518.50;5170318;28;20230;-62
2023/05/18 03:53:12;;;;;;;10.53;9.50;;;3.70;99.90;;;4.52;95.70;98512.75;5160907;28;20233;-63
2023/05/18 03:55:45;;;;;;;10.33;9.30;;;3.80;99.90;;;4.58;96.04;98509.88;5158102;28;20246;-64
2023/05/18 03:58:19;;;;;;;11.00;9.57;;;3.80;99.90;;;4.62;95.89;98511.94;5160576;28;20222;-62
2023/05/18 04:00:54;;;;;;;10.30;9.30;;;3.90;99.90;;;4.56;96.03;98514.81;5166843;28;20310;-61
2023/05/18 04:03:27;;;;;;;9.80;8.80;;;3.90;99.90;;;4.64;96.37;98513.00;5162813;28;20265;-61
2023/05/18 04:06:00;;;;;;;11.73;9.90;;;3.90;99.90;;;4.69;96.23;98514.25;5165885;28;20228;-62
2023/05/18 04:08:33;;;;;;;9.80;8.90;;;3.90;99.90;;;4.80;95.98;98517.78;5163452;28;20225;-61
2023/05/18 04:11:06;;;;;;;10.20;9.30;;;4.00;99.90;;;4.79;95.70;98518.53;5165169;28;20598;-64
2023/05/18 04:13:40;;;;;;;11.47;8.93;;;4.00;99.90;;;4.83;95.24;98520.56;5159344;28;20273;-62
2023/05/18 04:16:15;;;;;;;10.10;9.00;;;4.00;99.90;;;4.76;94.61;98518.25;5162536;28;20223;-62
2023/05/18 04:18:48;;;;;;;9.13;8.23;;;4.00;99.90;;;4.69;95.06;98517.72;5163963;28;20273;-61
2023/05/18 04:21:21;;;;;;;9.83;8.60;;;3.90;99.90;;;4.64;95.32;98518.94;5163780;28;20237;-62
2023/05/18 04:23:58;;;;;;;9.53;8.63;;;3.80;99.90;;;4.71;95.24;98520.38;5162828;28;20649;-63
2023/05/18 04:26:33;;;;;;;9.43;8.53;;;4.00;99.90;;;4.79;94.18;98527.00;5162174;28;20235;-64
2023/05/18 04:29:06;;;;;;;10.10;9.00;;;4.00;99.90;;;4.72;94.97;98524.66;5164211;28;20603;-61
2023/05/18 04:31:41;;;;;;;10.00;9.10;;;3.90;99.90;;;4.76;95.62;98526.75;5162819;28;20238;-62
2023/05/18 04:34:16;;;;;;;9.70;8.80;;;4.00;99.90;;;4.80;95.33;98533.84;5159605;28;20234;-61
2023/05/18 04:36:53;;;;;;;9.43;8.53;;;4.00;99.90;;;4.82;95.01;98534.88;5163596;28;20225;-62
2023/05/18 04:39:26;;;;;;;10.13;8.50;;;4.10;99.90;;;4.93;95.17;98539.28;5157226;28;20259;-65
2023/05/18 04:41:59;;;;;;;9.63;8.50;;;4.20;99.90;;;4.97;94.93;98536.25;5161774;28;20236;-65
2023/05/18 04:44:33;;;;;;;9.20;8.27;;;4.20;99.90;;;5.03;95.06;98537.56;5157018;28;20869;-64
2023/05/18 04:47:08;;;;;;;9.40;8.50;;;4.20;99.90;;;5.05;94.61;98536.06;5162749;28;20223;-61
2023/05/18 04:49:41;;;;;;;9.53;8.73;;;4.30;99.90;;;5.11;94.19;98541.66;5161648;28;20796;-64
2023/05/18 04:52:14;;;;;;;9.73;8.73;;;4.30;99.90;;;5.18;94.67;98544.00;5163246;28;20257;-61
2023/05/18 04:54:47;;;;;;;9.13;8.33;;;4.40;99.90;;;5.30;94.61;98540.00;5161596;28;20686;-63
2023/05/18 04:57:20;;;;;;;10.10;9.00;;;4.60;99.90;;;5.28;94.08;98544.03;5163118;28;20335;-61
2023/05/18 04:59:53;;;;;;;9.47;8.67;;;4.60;99.90;;;5.47;94.61;98545.69;5158941;28;20277;-62
2023/05/18 05:02:28;;;;;;;9.67;8.77;;;4.70;99.90;;;5.71;93.71;98537.66;5161644;28;20276;-62
2023/05/18 05:05:01;;;;;;;9.27;8.40;;;4.90;99.90;;;6.00;93.19;98546.91;5163585;28;20265;-64
2023/05/18 05:07:34;;;;;;;8.77;7.87;;;5.10;99.90;;;6.17;91.94;98544.16;5162205;28;20269;-62
2023/05/18 05:10:09;;;;;;;11.30;8.73;;;5.30;99.90;;;6.37;91.30;98544.97;5161622;28;20258;-63
2023/05/18 05:12:42;;;;;;;8.93;8.13;;;5.50;99.90;;;6.58;91.47;98539.16;5164520;28;20280;-67
2023/05/18 05:15:15;;;;;;;8.53;7.77;;;5.70;99.90;;;6.99;88.32;98549.31;5160383;28;20727;-62
2023/05/18 05:17:50;;;;;;;8.87;7.97;;;6.20;99.90;;;7.38;88.29;98538.94;5158227;28;20289;-63
2023/05/18 05:20:23;;;;;;;9.10;8.30;;;6.80;99.90;;;8.02;85.87;98532.94;5155457;28;20253;-62
2023/05/18 05:22:56;;;;;;;8.00;7.20;;;7.30;99.90;;;8.44;80.98;98539.59;5156963;28;20238;-67
2023/05/18 05:25:29;;;;;;;9.00;6.90;;;7.80;99.90;;;9.05;78.38;98530.56;5155907;28;20223;-62
2023/05/18 05:28:03;;;;;;;7.07;6.40;;;8.30;99.90;;;9.54;75.50;98536.69;5157293;28;20219;-63
2023/05/18 05:30:36;;;;;;;9.77;6.60;;;8.60;99.90;;;9.95;72.45;98536.16;5161191;28;20250;-62
2023/05/18 05:33:11;;;;;;;8.60;6.43;;;9.10;99.90;;;10.52;71.01;98538.44;5159887;28;20243;-62
2023/05/18 05:35:44;;;;;;;8.73;6.33;;;9.60;99.90;;;10.90;69.77;98531.59;5159053;28;20229;-66
2023/05/18 05:38:17;;;;;;;7.20;6.03;;;9.80;99.90;;;11.23;66.30;98523.56;5154461;28;20273;-62
2023/05/18 05:40:50;;;;;;;7.37;6.37;;;10.00;99.90;;;11.55;65.26;98532.44;5152816;28;20255;-64
2023/05/18 05:43:23;;;;;;;6.35;5.78;;;10.40;99.90;;;11.72;63.52;98524.16;5161837;28;20310;-61
2023/05/18 05:45:56;;;;;;;7.10;5.82;;;10.40;99.90;;;12.09;63.15;98534.19;5157509;28;20251;-66
2023/05/18 05:48:31;;;;;;;7.22;5.32;;;10.60;99.90;;;12.47;60.97;98532.19;5153312;28;20718;-59
2023/05/18 05:51:04;;;;;;;5.88;5.28;;;10.90;99.90;;;12.89;58.12;98531.28;5159352;28;20254;-65
2023/05/18 05:53:37;;;;;;;7.38;5.20;;;11.40;99.90;;;13.16;57.25;98531.13;5152631;28;20227;-62
2023/05/18 05:56:10;;;;;;;6.97;5.40;;;11.80;99.90;;;12.84;58.45;98536.13;5160720;28;20223;-64
2023/05/18 05:58:43;;;;;;;5.88;4.60;;;11.30;99.90;;;13.11;57.35;98540.25;5160455;28;20247;-63
2023/05/18 06:01:17;;;;;;;5.57;4.78;;;11.40;99.90;;;13.39;54.81;98533.38;5157829;28;20222;-62
2023/05/18 06:03:51;;;;;;;6.25;4.57;;;11.60;99.90;;;14.04;55.54;98530.09;5162437;28;20272;-63
2023/05/18 06:06:24;;;;;;;9.15;4.78;;;12.20;99.90;;;14.28;54.35;98522.84;5157369;28;20309;-62
2023/05/18 06:08:57;;;;;;;7.30;4.80;;;12.30;99.90;;;14.52;52.92;98532.69;5158222;28;20238;-64
2023/05/18 06:11:31;;;;;;;6.70;4.38;;;12.50;99.90;;;14.60;51.44;98540.00;5159825;28;20318;-62
2023/05/18 06:14:04;;;;;;;7.53;4.45;;;12.70;99.90;;;14.13;52.49;98535.75;5157684;28;20293;-63
2023/05/18 06:16:37;;;;;;;7.18;4.43;;;12.40;99.90;;;14.35;50.27;98548.06;5159378;28;20290;-60
2023/05/18 06:19:11;;;;;;;7.15;4.15;;;12.70;99.60;;;14.37;50.82;98536.19;5154121;28;20254;-61
2023/05/18 06:21:45;;;;;;;5.45;3.92;;;12.80;99.10;;;14.45;50.70;98536.59;5162388;28;20233;-62
2023/05/18 06:24:18;;;;;;;5.18;4.28;;;12.70;99.40;;;14.64;49.78;98535.88;5157560;28;20765;-62
2023/05/18 06:26:51;;;;;;;8.52;4.22;;;13.10;98.60;;;14.65;49.50;98540.25;5157783;28;20288;-62
2023/05/18 06:29:24;;;;;;;6.60;4.10;;;13.30;97.90;;;15.04;49.00;98543.06;5157244;28;20231;-62
2023/05/18 06:31:57;;;;;;;8.52;4.65;;;13.40;97.90;;;14.94;49.66;98536.59;5155895;28;20313;-62
2023/05/18 06:34:32;;;;;;;5.20;3.72;;;13.50;97.70;;;15.65;48.78;98537.47;5160944;28;20544;-62
2023/05/18 06:37:05;;;;;;;6.55;3.92;;;14.00;97.80;;;16.06;46.87;98531.75;5158691;28;20726;-66
2023/05/18 06:39:39;;;;;;;5.70;4.15;;;14.40;96.50;;;15.66;47.62;98523.81;5153181;28;20235;-62
2023/05/18 06:42:12;;;;;;;8.75;4.20;;;14.20;96.60;;;15.92;46.58;98528.50;5154022;28;20267;-62
2023/05/18 06:44:45;;;;;;;7.45;4.13;;;14.30;96.00;;;16.49;45.52;98518.22;5153945;28;20262;-64
2023/05/18 06:47:19;;;;;;;6.07;4.00;;;14.70;95.70;;;16.38;45.57;98511.69;5157608;28;20284;-62
2023/05/18 06:49:53;;;;;;;6.35;3.72;;;14.80;95.10;;;17.11;45.23;98521.75;5157669;28;20235;-64
2023/05/18 06:52:26;;;;;;;7.07;4.35;;;15.30;95.20;;;16.35;45.55;98521.88;5155560;28;20264;-63
2023/05/18 06:55:01;;;;;;;5.97;3.90;;;14.80;94.60;;;17.06;44.97;98525.88;5154848;28;20230;-63
2023/05/18 06:57:34;;;;;;;7.35;4.10;;;15.40;95.00;;;17.15;44.21;98515.03;5157452;28;20344;-60
2023/05/18 07:00:09;;;;;;;8.93;4.30;;;15.60;93.80;;;17.74;43.05;98520.03;5162084;28;20230;-61
2023/05/18 07:02:44;;;;;;;6.00;3.85;;;16.20;93.30;;;17.68;42.42;98516.31;5158245;28;20250;-62
2023/05/18 07:05:18;;;;;;;7.95;3.58;;;16.20;92.60;;;17.19;43.70;98510.03;5164428;28;20246;-61
2023/05/18 07:07:52;;;;;;;6.30;3.95;;;16.00;93.10;;;16.82;42.87;98523.97;5159944;28;20265;-60
2023/05/18 07:10:25;;;;;;;10.05;3.67;;;15.70;92.20;;;16.74;44.31;98520.16;5162303;28;20695;-62
2023/05/18 07:12:58;;;;;;;7.90;4.00;;;15.10;93.60;;;17.28;43.71;98514.69;5157693;28;20231;-62
2023/05/18 07:15:31;;;;;;;8.23;3.95;;;15.60;93.40;;;17.88;42.42;98515.41;5164157;28;20304;-63
2023/05/18 07:18:05;;;;;;;7.22;3.95;;;16.20;92.40;;;18.20;40.75;98523.56;5159614;28;20231;-61
2023/05/18 07:20:39;;;;;;;8.32;3.97;;;16.80;91.40;;;17.75;41.58;98516.63;5159045;28;20223;-61
2023/05/18 07:23:13;;;;;;;6.40;3.67;;;16.30;91.80;;;17.68;41.19;98522.34;5161976;28;21002;-61
2023/05/18 07:25:47;;;;;;;9.18;4.10;;;16.60;91.20;;;17.74;41.66;98524.31;5167851;28;20314;-61
2023/05/18 07:28:21;;;;;;;7.30;4.10;;;16.20;91.80;;;18.18;41.26;98514.84;5152919;28;20245;-62
2023/05/18 07:30:54;;;;;;;8.80;3.53;;;16.80;91.40;;;18.43;41.19;98512.34;5159633;28;20235;-62
2023/05/18 07:33:27;;;;;;;5.05;3.35;;;16.90;91.40;;;18.84;41.23;98504.31;5160900;28;20254;-62
2023/05/18 07:36:01;;;;;;;5.82;3.38;;;17.10;91.70;;;18.75;39.75;98498.81;5163938;28;20322;-61
2023/05/18 07:38:34;;;;;;;5.00;3.20;;;17.40;90.30;;;19.68;39.61;98504.53;5156733;28;20269;-59
2023/05/18 07:41:07;;;;;;;6.22;3.80;;;17.80;91.00;;;20.13;37.47;98504.19;5153884;28;20227;-62
2023/05/18 07:43:41;;;;;;;7.32;3.53;;;18.10;89.70;;;20.54;37.44;98511.44;5144692;28;20313;-62
2023/05/18 07:46:14;;;;;;;6.57;3.42;;;18.50;89.30;;;20.18;37.24;98505.19;5140960;28;20227;-61
2023/05/18 07:48:47;;;;;;;6.53;3.70;;;18.10;88.80;;;18.99;38.34;98524.69;5145757;28;20230;-60
2023/05/18 07:51:21;;;;;;;6.15;3.30;;;17.30;88.70;;;19.16;38.73;98508.00;5156992;28;20289;-61
2023/05/18 07:53:55;;;;;;;7.80;3.67;;;17.00;90.20;;;19.60;38.96;98500.78;5155801;28;20316;-60
2023/05/18 07:56:28;;;;;;;6.13;3.47;;;17.30;90.80;;;20.51;37.76;98504.41;5158766;28;20227;-63
2023/05/18 07:59:01;;;;;;;6.25;3.60;;;18.10;90.20;;;20.70;36.96;98503.22;5158067;28;20234;-59
2023/05/18 08:01:36;;;;;;;5.68;3.40;;;18.40;89.30;;;21.14;35.91;98496.59;5156474;28;20227;-63
2023/05/18 08:04:09;;;;;;;4.32;3.10;;;18.90;87.60;;;19.51;36.97;98497.91;5157465;28;20254;-62
2023/05/18 08:06:44;;;;;;;6.85;4.00;;;18.40;85.70;;;19.11;38.87;98489.72;5158111;28;20643;-62
2023/05/18 08:09:17;;;;;;;5.82;3.67;;;17.70;88.50;;;19.38;38.32;98493.16;5155340;28;20587;-63
2023/05/18 08:11:51;;;;;;;5.93;4.13;;;18.00;87.40;;;18.25;38.96;98490.94;5155350;28;20769;-62
2023/05/18 08:14:24;;;;;;;6.10;3.97;;;18.10;85.70;;;18.30;41.00;98494.59;5157452;28;20310;-61
2023/05/18 08:16:57;;;;;;;5.97;3.75;;;17.30;90.30;;;18.89;40.13;98487.22;5155820;28;20281;-62
2023/05/18 08:19:30;;;;;;;9.45;4.30;;;17.80;89.40;;;19.13;39.22;98487.16;5154349;28;20234;-60
2023/05/18 08:22:05;;;;;;;7.65;3.90;;;18.20;87.60;;;17.80;40.82;98491.00;5153870;28;20231;-62
2023/05/18 08:24:38;;;;;;;7.60;3.95;;;17.40;87.20;;;18.54;40.92;98481.66;5157412;28;20280;-62
2023/05/18 08:27:11;;;;;;;7.25;3.85;;;17.60;89.50;;;18.67;40.21;98480.38;5158292;28;20591;-61
2023/05/18 08:29:44;;;;;;;7.22;3.67;;;17.90;87.80;;;18.96;40.28;98477.94;5160088;28;20508;-62
2023/05/18 08:32:17;;;;;;;7.30;3.90;;;18.20;88.40;;;19.15;40.08;98482.91;5151986;28;20290;-62
2023/05/18 08:34:50;;;;;;;6.88;3.80;;;18.50;88.30;;;19.12;39.73;98480.22;5153669;28;20234;-62
2023/05/18 08:37:28;;;;;;;7.07;3.72;;;18.40;87.40;;;19.40;39.62;98468.16;5150917;28;20566;-62
2023/05/18 08:40:02;;;;;;;6.25;3.85;;;18.60;87.50;;;19.35;38.88;98465.44;5156767;28;20665;-61
2023/05/18 08:42:40;;;;;;;7.40;4.13;;;18.80;86.00;;;18.17;39.86;98474.25;5158240;28;20301;-63
2023/05/18 08:45:32;;;;;;;7.05;4.30;;;18.20;84.60;;;18.29;40.49;98456.59;5154780;28;20229;-61
2023/05/18 08:48:06;;;;;;;4.57;3.80;;;17.80;86.90;;;18.23;39.59;98471.91;5155818;28;20227;-62
2023/05/18 08:50:42;;;;;;;8.05;4.20;;;17.60;85.10;;;17.50;41.38;98460.47;5155022;28;20227;-61
2023/05/18 08:53:18;;;;;;;7.20;4.60;;;17.10;87.90;;;17.63;42.12;98471.31;5159023;28;20250;-63
2023/05/18 08:55:54;;;;;;;6.10;4.00;;;17.00;89.40;;;17.44;41.80;98460.25;5159545;28;20231;-62
2023/05/18 08:58:35;;;;;;;7.82;3.70;;;17.00;89.00;;;18.09;40.72;98462.75;5155699;28;20250;-62
2023/05/18 09:01:08;;;;;;;8.15;4.60;;;17.50;87.80;;;17.45;41.76;98467.16;5169338;28;20329;-60
2023/05/18 09:03:42;;;;;;;7.28;3.97;;;17.00;87.70;;;17.31;43.09;98463.13;5156510;28;20235;-63
2023/05/18 09:06:15;;;;;;;5.70;4.32;;;16.90;89.40;;;17.53;41.27;98470.06;5158368;28;20875;-60
2023/05/18 09:08:52;;;;;;;6.85;3.85;;;17.00;87.80;;;18.02;41.79;98456.44;5163163;28;20285;-62
2023/05/18 09:11:27;;;;;;;7.25;3.90;;;17.50;89.20;;;17.97;41.79;98461.47;5157902;28;20289;-62
2023/05/18 09:14:01;;;;;;;6.70;3.83;;;17.50;88.70;;;18.32;40.71;98461.00;5156679;28;20218;-61
2023/05/18 09:16:34;;;;;;;8.20;4.45;;;17.70;87.50;;;18.15;41.06;98461.25;5160872;28;20382;-61
2023/05/18 09:19:08;;;;;;;7.43;3.90;;;17.80;86.70;;;18.13;40.03;98469.78;5157584;28;20234;-61
2023/05/18 09:21:42;;;;;;;6.00;4.10;;;17.70;86.20;;;17.93;40.30;98461.28;5157586;28;20238;-60
2023/05/18 09:24:18;;;;;;;7.10;4.13;;;17.60;85.60;;;18.44;39.94;98466.63;5157688;28;20305;-61
2023/05/18 09:26:51;;;;;;;8.48;4.32;;;18.00;85.50;;;18.35;40.13;98463.72;5153378;28;20222;-63
2023/05/18 09:29:24;;;;;;;6.78;4.00;;;17.80;86.30;;;17.74;41.09;98467.41;5154648;28;20555;-62
2023/05/18 09:32:02;;;;;;;6.65;4.00;;;17.40;87.10;;;18.28;40.15;98466.88;5159988;28;20773;-62
2023/05/18 09:34:47;;;;;;;6.93;4.40;;;17.70;86.20;;;17.77;40.41;98463.28;5140194;28;20306;-61
2023/05/18 09:37:21;;;;;;;6.85;4.32;;;17.40;85.70;;;18.09;39.19;98468.81;5146102;28;20318;-62
2023/05/18 09:40:04;;;;;;;9.57;4.60;;;17.50;84.90;;;18.00;39.28;98453.81;5162140;28;20268;-60
2023/05/18 09:42:39;;;;;;;6.70;4.28;;;17.50;83.90;;;17.52;41.16;98465.72;5162936;28;20219;-61
2023/05/18 09:45:18;;;;;;;9.18;4.93;;;17.20;86.80;;;17.26;41.19;98465.56;5158161;28;20845;-63
2023/05/18 09:47:52;;;;;;;8.57;4.35;;;17.10;85.60;;;17.82;41.16;98457.41;5151695;28;20235;-63
2023/05/18 09:50:26;;;;;;;8.63;4.25;;;17.20;87.50;;;17.85;40.90;98467.88;5156444;28;20587;-62
2023/05/18 09:53:00;;;;;;;8.35;4.20;;;17.30;86.80;;;17.95;40.96;98462.22;5159058;28;20602;-62
2023/05/18 09:55:38;;;;;;;8.15;3.97;;;17.40;86.80;;;18.06;40.65;98452.28;5158398;28;20242;-61
2023/05/18 09:58:11;;;;;;;8.82;4.07;;;17.70;86.20;;;18.39;40.34;98442.28;5157218;28;20230;-62
2023/05/18 10:00:50;;;;;;;7.07;4.13;;;18.10;86.10;;;17.75;39.80;98458.84;5152505;28;20255;-64
2023/05/18 10:03:25;;;;;;;7.28;3.88;;;17.80;83.00;;;18.24;40.13;98452.97;5156800;28;20229;-63
2023/05/18 10:06:04;;;;;;;6.30;3.63;;;17.70;86.00;;;18.16;39.21;98452.66;5160045;28;20696;-62
2023/05/18 10:08:37;;;;;;;7.28;3.92;;;17.50;84.50;;;18.02;39.84;98456.44;5158301;28;20281;-62
2023/05/18 10:11:12;;;;;;;6.25;3.80;;;17.50;84.70;;;17.59;40.72;98446.16;5155721;28;20254;-63
2023/05/18 10:13:45;;;;;;;7.05;4.15;;;17.10;85.80;;;17.78;40.07;98436.59;5160580;28;20242;-62
2023/05/18 10:16:19;;;;;;;8.13;4.10;;;17.20;85.70;;;17.72;39.94;98440.63;5156467;28;20246;-60
2023/05/18 10:18:54;;;;;;;5.78;4.13;;;17.10;84.40;;;17.11;41.69;98445.16;5159246;28;20227;-62
2023/05/18 10:21:30;;;;;;;6.90;3.72;;;16.70;86.60;;;17.10;40.60;98451.13;5156244;28;20321;-61
2023/05/18 10:24:07;;;;;;;7.45;4.25;;;16.60;86.00;;;17.43;39.94;98440.41;5158285;28;20227;-60
2023/05/18 10:26:43;;;;;;;6.13;3.97;;;16.80;85.90;;;17.09;39.91;98441.63;5158318;28;20225;-62
2023/05/18 10:29:17;;;;;;;5.38;3.90;;;16.70;84.50;;;17.38;41.20;98435.88;5157992;28;20646;-60
2023/05/18 10:31:52;;;;;;;6.68;3.67;;;16.80;86.00;;;16.98;40.80;98432.56;5153271;28;20255;-61
2023/05/18 10:34:25;;;;;;;6.70;3.80;;;16.70;85.00;;;17.32;41.23;98428.75;5157508;28;20250;-63
2023/05/18 10:37:02;;;;;;;7.07;4.05;;;17.00;86.40;;;17.14;40.64;98428.00;5158800;28;20219;-60
2023/05/18 10:39:37;;;;;;;5.97;3.65;;;16.80;85.50;;;17.62;41.68;98435.94;5154414;28;20305;-62
2023/05/18 10:42:13;;;;;;;6.47;3.95;;;17.10;87.10;;;17.29;40.09;98426.03;5152642;28;20357;-61
2023/05/18 10:44:48;;;;;;;5.68;3.55;;;17.10;84.40;;;17.61;41.46;98422.13;5154889;28;20757;-61
2023/05/18 10:47:24;;;;;;;6.15;3.90;;;17.20;86.10;;;17.68;40.72;98424.09;5159658;28;20525;-61
2023/05/18 10:50:00;;;;;;;6.50;3.88;;;17.10;85.90;;;17.31;40.05;98419.22;5154133;28;20237;-62
2023/05/18 10:52:33;;;;;;;6.70;4.00;;;17.10;84.40;;;17.56;39.46;98428.81;5159647;28;20225;-62
2023/05/18 10:55:09;;;;;;;6.30;3.90;;;17.20;84.00;;;17.76;40.09;98421.81;5150460;28;20225;-62